Diamond, Illinois
Current Conditions -  °F | °C
As of 4:35 PM on Wednesday 22 Oct 2014 (Local Time) from KC09 Reporting Station
Clear Clear  
Wind Chill: 58°   Ceiling: Unl
Heat Index: 58°   Visibility: 10mi
Dew Point: 38°   Wind: 0mph
Humidity: 48%   Direction: NA
Pressure: 30.26"   Gusts: NA
Location:  41.2967°N, 88.2846°W
Report Text: KC09 222135Z AUTO 00000KT 10SM CLR 15/04 A3026 RMK AO2 T01460036
Loading
Personal Weather Stations






























Interactive Weather Map
Tropical Storm Tracking
New forecast layout! Learn more

10-Day Weather Forecast

Advertisements
Track Severe Weather on mobile